Terminal Aerodrome Forecast
Issued by NWS

Current Version | Previous Version | Text Only | Print | Product List | Glossary Off
Versions: 1 2 3 4 5 6 7 8 9 10 11 12 13 14 15 16 17 18 19 20 21 22 23 24 25 26 27 28 29

000
FTUS41 KILN 181000 AAC
TAFLUK
TAF AMD
KLUK 181019Z 1810/1906 06004KT P6SM OVC035
     FM181100 05003KT 4SM BR VCSH OVC015
     FM181400 03004KT P6SM VCSH OVC020
     FM181700 02005KT P6SM VCSH BKN040
     FM190100 00000KT P6SM BKN100=

USA.gov is the U.S. government's official web portal to all federal, state and local government web resources and services.